createdAt,value
2022-09-15T00:00:14.449Z,14.1
2022-09-15T00:02:20.939Z,14.1
2022-09-15T00:04:23.919Z,14.2
2022-09-15T00:06:27.054Z,14.2
2022-09-15T00:07:30.244Z,14.4
2022-09-15T00:09:33.398Z,14.4
2022-09-15T00:11:36.552Z,14.3
2022-09-15T00:13:39.689Z,14.4
2022-09-15T00:15:46.068Z,14.3
2022-09-15T00:17:49.204Z,14.4
2022-09-15T00:19:52.358Z,14.4
2022-09-15T00:21:55.507Z,14.5
2022-09-15T00:23:58.637Z,14.5
2022-09-15T00:26:01.772Z,14.5
2022-09-15T00:28:04.901Z,14.6
2022-09-15T00:30:11.303Z,14.5
2022-09-15T00:32:14.433Z,14.5
2022-09-15T00:34:17.562Z,14.5
2022-09-15T00:36:20.708Z,14.6
2022-09-15T00:42:30.156Z,14.6
2022-09-15T00:44:36.572Z,14.4
2022-09-15T00:46:39.711Z,14.5
2022-09-15T00:48:42.840Z,14.4
2022-09-15T00:50:46.005Z,14.4
2022-09-15T00:52:49.243Z,14.5
2022-09-15T00:54:52.287Z,14.4
2022-09-15T00:56:55.439Z,14.3
2022-09-15T00:59:01.816Z,14.3
2022-09-15T01:01:36.610Z,14.3
2022-09-15T01:03:08.098Z,14.3
2022-09-15T01:06:14.441Z,14.4
2022-09-15T01:08:17.586Z,14.4
2022-09-15T01:10:20.741Z,14.4
2022-09-15T01:12:27.120Z,14.3
2022-09-15T01:14:30.243Z,14.4
2022-09-15T01:19:40.159Z,14.3
2022-09-15T01:20:39.672Z,14.2
2022-09-15T01:22:42.824Z,14.1
2022-09-15T01:24:45.960Z,14
2022-09-15T01:26:52.328Z,14
2022-09-15T01:37:08.080Z,13.7
2022-09-15T01:43:20.733Z,13.8
2022-09-15T01:45:23.927Z,13.7
2022-09-15T01:49:31.716Z,13.7
2022-09-15T01:51:34.884Z,13.7
2022-09-15T01:55:44.401Z,13.6
2022-09-15T01:59:50.684Z,13.7
2022-09-15T02:02:14.957Z,13.7
2022-09-15T02:04:17.990Z,13.6
2022-09-15T02:06:21.141Z,13.6
2022-09-15T02:08:27.508Z,13.5
2022-09-15T02:10:30.623Z,13.5
2022-09-15T02:12:33.770Z,13.5
2022-09-15T02:14:36.907Z,13.5
2022-09-15T02:16:40.165Z,13.6
2022-09-15T02:18:43.193Z,13.7
2022-09-15T02:20:46.380Z,13.6
2022-09-15T02:22:52.719Z,13.8
2022-09-15T02:24:55.837Z,13.8
2022-09-15T02:26:59.000Z,14
2022-09-15T02:29:02.147Z,13.9
2022-09-15T02:31:05.367Z,14.1
2022-09-15T02:35:11.577Z,14
2022-09-15T02:37:17.946Z,14.1
2022-09-15T02:41:24.199Z,14
2022-09-15T02:45:30.542Z,14
2022-09-15T02:47:33.646Z,14
2022-09-15T02:51:43.161Z,14
2022-09-15T02:55:49.443Z,14
2022-09-15T02:56:52.609Z,14
2022-09-15T02:58:55.741Z,14
2022-09-15T03:00:59.002Z,13.8
2022-09-15T03:03:02.064Z,13.9
2022-09-15T03:13:20.987Z,13.9
2022-09-15T03:15:24.104Z,13.8
2022-09-15T03:17:27.233Z,13.8
2022-09-15T03:23:39.914Z,13.8
2022-09-15T03:25:43.032Z,13.8
2022-09-15T03:29:49.326Z,13.7
2022-09-15T03:31:52.529Z,13.7
2022-09-15T03:36:02.003Z,13.8
2022-09-15T03:53:33.498Z,14.1
2022-09-15T03:55:36.632Z,14.1
2022-09-15T03:57:39.789Z,14.2
2022-09-15T03:59:42.937Z,14.2
2022-09-15T04:01:49.407Z,14.3
2022-09-15T04:10:01.919Z,14.4
2022-09-15T04:12:05.025Z,14.5
2022-09-15T04:14:08.148Z,14.4
2022-09-15T04:16:14.567Z,14.4
2022-09-15T04:18:17.639Z,14.4
2022-09-15T04:20:20.779Z,14.4
2022-09-15T04:22:23.934Z,14.5
2022-09-15T04:24:27.082Z,14.5
2022-09-15T04:26:30.220Z,14.4
2022-09-15T04:28:33.367Z,14.5
2022-09-15T04:30:39.739Z,14.4
2022-09-15T04:32:42.898Z,14.3
2022-09-15T04:34:46.021Z,14.3
2022-09-15T04:36:49.166Z,14.3
2022-09-15T04:38:52.579Z,14.2
2022-09-15T04:40:55.449Z,14.2
2022-09-15T04:45:04.965Z,14
2022-09-15T04:47:08.120Z,14.1
2022-09-15T04:49:11.255Z,14.1
2022-09-15T04:50:14.406Z,14
2022-09-15T04:52:17.556Z,14
2022-09-15T04:54:20.725Z,13.9
2022-09-15T04:58:30.276Z,13.9
2022-09-15T05:00:33.518Z,13.9
2022-09-15T05:04:39.686Z,13.9
2022-09-15T05:06:42.845Z,13.9
2022-09-15T05:08:45.987Z,13.9
2022-09-15T05:10:49.120Z,13.8
2022-09-15T05:12:55.489Z,13.9
2022-09-15T05:21:08.088Z,13.9
2022-09-15T05:27:20.731Z,13.8
2022-09-15T05:29:23.879Z,14
2022-09-15T05:31:27.178Z,14
2022-09-15T05:33:30.178Z,13.9
2022-09-15T05:35:33.304Z,14
2022-09-15T05:37:36.462Z,14.1
2022-09-15T05:39:39.599Z,14
2022-09-15T05:41:45.964Z,14
2022-09-15T05:43:49.091Z,14
2022-09-15T05:45:52.239Z,14
2022-09-15T05:48:22.042Z,13.9
2022-09-15T05:50:25.191Z,14
2022-09-15T05:52:28.340Z,13.9
2022-09-15T05:54:34.684Z,13.9
2022-09-15T05:56:37.834Z,13.8
2022-09-15T05:58:40.972Z,13.8
2022-09-15T06:00:44.117Z,13.9
2022-09-15T06:02:47.312Z,14
2022-09-15T06:04:50.427Z,14
2022-09-15T06:06:53.591Z,14.2
2022-09-15T06:09:00.051Z,14.3
2022-09-15T06:11:03.052Z,14.3
2022-09-15T06:13:06.215Z,14.4
2022-09-15T06:15:09.349Z,14.4
2022-09-15T06:17:12.483Z,14.3
2022-09-15T06:19:15.635Z,14.3
2022-09-15T06:21:18.797Z,14.5
2022-09-15T06:23:25.148Z,14.6
2022-09-15T06:25:28.323Z,14.5
2022-09-15T06:27:31.451Z,14.6
2022-09-15T06:29:34.601Z,14.6
2022-09-15T06:31:37.796Z,14.7
2022-09-15T06:33:41.002Z,14.7
2022-09-15T06:35:44.218Z,14.7
2022-09-15T06:37:50.412Z,14.8
2022-09-15T06:39:53.592Z,14.8
2022-09-15T06:42:02.768Z,14.8
2022-09-15T06:42:59.859Z,14.7
2022-09-15T06:47:06.159Z,14.9
2022-09-15T06:51:15.654Z,15
2022-09-15T06:57:25.117Z,15.1
2022-09-15T06:59:28.259Z,15.2
2022-09-15T07:01:31.396Z,15.3
2022-09-15T07:03:34.679Z,15.3
2022-09-15T07:05:40.918Z,15.3
2022-09-15T07:07:44.041Z,15.3
2022-09-15T07:09:49.032Z,15.3
2022-09-15T07:11:50.338Z,15.3
2022-09-15T07:13:53.587Z,15.4
2022-09-15T07:15:56.675Z,15.4
2022-09-15T07:17:59.659Z,15.5
2022-09-15T07:20:05.924Z,15.6
2022-09-15T07:22:09.064Z,15.5
2022-09-15T07:24:12.212Z,15.3
2022-09-15T07:32:24.470Z,15.1
2022-09-15T07:34:30.846Z,15
2022-09-15T07:36:33.985Z,15
2022-09-15T07:38:37.127Z,15
2022-09-15T07:39:40.302Z,15.1
2022-09-15T07:41:45.028Z,15.2
2022-09-15T07:43:48.116Z,15.1
2022-09-15T07:45:51.404Z,15.3
2022-09-15T07:47:57.626Z,15.6
2022-09-15T07:50:00.789Z,15.5
2022-09-15T07:52:03.937Z,15.7
2022-09-15T07:54:07.073Z,15.5
2022-09-15T07:56:10.215Z,15.6
2022-09-15T07:58:13.336Z,15.6
2022-09-15T08:00:16.384Z,15.6
2022-09-15T08:02:22.788Z,15.5
2022-09-15T08:04:25.700Z,15.6
2022-09-15T08:06:28.823Z,15.7
2022-09-15T08:08:31.865Z,15.9
2022-09-15T08:10:34.902Z,15.9
2022-09-15T08:12:37.945Z,16.2
2022-09-15T08:14:40.976Z,16.5
2022-09-15T08:16:47.124Z,16.8
2022-09-15T08:18:50.180Z,16.9
2022-09-15T08:20:53.201Z,17.2
2022-09-15T08:22:56.240Z,17.1
2022-09-15T08:24:59.264Z,17
2022-09-15T08:27:02.302Z,17
2022-09-15T08:29:05.330Z,17
2022-09-15T08:31:11.820Z,17
2022-09-15T08:33:14.543Z,17.1
2022-09-15T08:35:17.550Z,18.1
2022-09-15T08:36:20.607Z,19.3
2022-09-15T08:38:23.674Z,19.6
2022-09-15T08:40:26.793Z,19
2022-09-15T08:42:29.688Z,18.7
2022-09-15T08:44:35.820Z,18.4
2022-09-15T08:46:38.924Z,18.6
2022-09-15T08:48:41.848Z,18.5
2022-09-15T08:50:44.876Z,18.3
2022-09-15T08:52:47.876Z,18.2
2022-09-15T08:54:50.897Z,18.2
2022-09-15T08:56:53.908Z,17.6
2022-09-15T09:01:03.063Z,17.1
2022-09-15T09:03:06.183Z,17.6
2022-09-15T09:05:09.076Z,17.7
2022-09-15T09:07:12.079Z,17.8
2022-09-15T09:09:15.082Z,17.7
2022-09-15T09:11:18.116Z,17.7
2022-09-15T09:13:24.264Z,17.9
2022-09-15T09:17:30.264Z,18
2022-09-15T09:21:36.264Z,18.7
2022-09-15T09:25:42.258Z,19.2
2022-09-15T09:27:48.410Z,18.9
2022-09-15T09:31:54.413Z,18.7
2022-09-15T09:34:23.804Z,18.1
2022-09-15T09:36:26.784Z,18.1
2022-09-15T09:38:29.789Z,18.5
2022-09-15T09:40:35.993Z,18.8
2022-09-15T09:42:38.924Z,18.4
2022-09-15T09:44:41.937Z,18.1
2022-09-15T09:46:44.892Z,18.5
2022-09-15T09:48:47.898Z,19.3
2022-09-15T09:50:50.873Z,19.5
2022-09-15T09:52:53.867Z,19.7
2022-09-15T09:55:00.025Z,19.3
2022-09-15T09:57:02.993Z,19.3
2022-09-15T09:59:05.957Z,19.5
2022-09-15T10:01:08.972Z,20.2
2022-09-15T10:05:14.977Z,20.7
2022-09-15T10:07:17.918Z,21
2022-09-15T10:09:24.023Z,20.1
2022-09-15T10:11:26.993Z,20
2022-09-15T10:17:35.914Z,19.3
2022-09-15T10:19:38.917Z,19
2022-09-15T10:21:41.892Z,19.1
2022-09-15T10:23:47.971Z,19.1
2022-09-15T10:25:59.531Z,19.3
2022-09-15T10:27:53.915Z,19
2022-09-15T10:28:56.972Z,19.1
2022-09-15T10:30:59.940Z,18.9
2022-09-15T10:35:05.873Z,19
2022-09-15T10:37:11.980Z,19.1
2022-09-15T10:39:14.973Z,19.1
2022-09-15T10:41:17.945Z,19.1
2022-09-15T10:43:20.929Z,18.9
2022-09-15T10:45:23.969Z,19.2
2022-09-15T10:47:26.879Z,19.1
2022-09-15T10:49:29.847Z,19.4
2022-09-15T10:51:35.958Z,19.1
2022-09-15T10:53:38.932Z,19.4
2022-09-15T10:57:44.888Z,20.1
2022-09-15T11:03:53.808Z,19.6
2022-09-15T11:10:05.852Z,20.3
2022-09-15T11:12:08.821Z,20.3
2022-09-15T11:14:11.746Z,19.8
2022-09-15T11:16:14.741Z,20.2
2022-09-15T11:18:17.643Z,20.9
2022-09-15T11:20:23.748Z,20.4
2022-09-15T11:24:29.638Z,20
2022-09-15T11:25:32.664Z,20.1
2022-09-15T11:27:35.606Z,20.4
2022-09-15T11:29:38.558Z,20.4
2022-09-15T11:31:41.647Z,19.9
2022-09-15T11:33:47.595Z,19.6
2022-09-15T11:35:50.532Z,19.8
2022-09-15T11:37:53.478Z,19.7
2022-09-15T11:39:56.500Z,20.1
2022-09-15T11:41:59.372Z,20.6
2022-09-15T11:44:02.384Z,20.3
2022-09-15T11:46:05.290Z,19.9
2022-09-15T11:52:17.215Z,19.5
2022-09-15T11:54:20.130Z,18.9
2022-09-15T11:56:23.099Z,18.6
2022-09-15T11:58:26.018Z,18.1
2022-09-15T12:00:29.004Z,17.9
2022-09-15T12:02:35.124Z,17.8
2022-09-15T12:04:38.046Z,17.7
2022-09-15T12:08:44.048Z,17.4
2022-09-15T12:10:46.977Z,17
2022-09-15T12:12:49.983Z,17.2
2022-09-15T12:14:52.952Z,17.4
2022-09-15T12:16:59.065Z,17.8
2022-09-15T12:19:02.061Z,17.6
2022-09-15T12:21:05.063Z,17.5
2022-09-15T12:22:08.111Z,17.5
2022-09-15T12:24:11.104Z,17.6
2022-09-15T12:26:14.099Z,17.7
2022-09-15T12:28:17.185Z,18.1
2022-09-15T12:30:23.243Z,19.3
2022-09-15T12:32:26.243Z,19.2
2022-09-15T12:34:29.226Z,19.4
2022-09-15T12:36:32.199Z,19.7
2022-09-15T12:38:35.209Z,20.5
2022-09-15T12:40:38.249Z,21.4
2022-09-15T12:42:41.124Z,21.4
2022-09-15T12:44:47.197Z,20.4
2022-09-15T12:46:50.225Z,20.3
2022-09-15T12:48:53.058Z,20.1
2022-09-15T12:50:56.012Z,20.1
2022-09-15T12:52:58.932Z,19.6
2022-09-15T12:55:01.913Z,19.6
2022-09-15T12:57:04.795Z,20.2
2022-09-15T12:59:10.875Z,19.9
2022-09-15T13:01:17.958Z,19.8
2022-09-15T13:03:16.895Z,19.6
2022-09-15T13:05:19.675Z,19.2
2022-09-15T13:07:22.617Z,19.5
2022-09-15T13:09:25.557Z,19.3
2022-09-15T13:11:28.493Z,19.2
2022-09-15T13:13:34.573Z,19.4
2022-09-15T13:15:37.564Z,19.4
2022-09-15T13:17:40.498Z,19.3
2022-09-15T13:20:09.829Z,19.4
2022-09-15T13:22:12.805Z,19.3
2022-09-15T13:24:15.726Z,19.1
2022-09-15T13:26:21.849Z,19.7
2022-09-15T13:28:24.820Z,20.1
2022-09-15T13:30:27.801Z,20.2
2022-09-15T13:32:30.762Z,21.7
2022-09-15T13:35:08.602Z,21.7
2022-09-15T13:38:41.286Z,20.8
2022-09-15T13:40:47.271Z,21.2
2022-09-15T13:42:50.202Z,20.6
2022-09-15T13:44:53.147Z,20.1
2022-09-15T13:46:56.110Z,20
2022-09-15T13:48:59.058Z,21.2
2022-09-15T13:51:01.999Z,23.7
2022-09-15T13:55:11.008Z,22.5
2022-09-15T13:57:14.357Z,21.2
2022-09-15T13:59:17.139Z,19.7
2022-09-15T14:01:19.865Z,19.9
2022-09-15T14:03:22.716Z,19.6
2022-09-15T14:07:28.578Z,19.7
2022-09-15T14:09:34.652Z,19.1
2022-09-15T14:11:37.568Z,18.6
2022-09-15T14:13:40.515Z,18.5
2022-09-15T14:22:58.485Z,21.5
2022-09-15T14:25:01.451Z,20.7
2022-09-15T14:27:04.411Z,20
2022-09-15T14:29:07.380Z,19.4
2022-09-15T14:31:10.339Z,20
2022-09-15T14:33:13.323Z,22.9
2022-09-15T14:37:22.383Z,20.6
2022-09-15T14:41:28.264Z,19.4
2022-09-15T14:43:31.233Z,19.2
2022-09-15T14:46:03.943Z,18.7
2022-09-15T14:47:37.156Z,18.7
2022-09-15T14:49:40.136Z,18.8
2022-09-15T14:51:46.217Z,18.8
2022-09-15T14:55:52.179Z,18.7
2022-09-15T15:02:01.176Z,18.9
2022-09-15T15:04:04.088Z,18.7
2022-09-15T15:11:19.247Z,19.4
2022-09-15T15:13:22.246Z,19.2
2022-09-15T15:15:25.241Z,19
2022-09-15T15:17:28.246Z,18.6
2022-09-15T15:19:34.350Z,17.6
2022-09-15T15:21:37.324Z,17.3
2022-09-15T15:23:43.333Z,17
2022-09-15T15:25:43.331Z,17.3
2022-09-15T15:27:46.347Z,17.2
2022-09-15T15:29:49.349Z,17.2
2022-09-15T15:31:52.422Z,17
2022-09-15T15:33:58.526Z,16.9
2022-09-15T15:36:01.582Z,17.1
2022-09-15T15:38:04.570Z,17.2
2022-09-15T15:40:07.668Z,18.5
2022-09-15T15:42:10.675Z,19.2
2022-09-15T15:44:13.643Z,19.3
2022-09-15T15:46:16.781Z,18.7
2022-09-15T15:48:22.799Z,18.9
2022-09-15T15:52:28.869Z,20.1
2022-09-15T15:54:31.876Z,20.4
2022-09-15T15:56:37.914Z,19.6
2022-09-15T16:00:40.963Z,18.2
2022-09-15T16:04:50.084Z,17.2
2022-09-15T16:06:53.108Z,17.7
2022-09-15T16:07:56.201Z,17.5
2022-09-15T16:09:59.213Z,17.5
2022-09-15T16:12:02.215Z,17.3
2022-09-15T16:14:05.242Z,17.2
2022-09-15T16:16:11.492Z,16.9
2022-09-15T16:18:14.425Z,17
2022-09-15T16:20:17.436Z,17.1
2022-09-15T16:22:20.498Z,17.2
2022-09-15T16:24:23.508Z,17.2
2022-09-15T16:26:26.527Z,17.1
2022-09-15T16:30:35.743Z,16.8
2022-09-15T16:32:38.754Z,16.8
2022-09-15T16:34:41.789Z,16.7
2022-09-15T16:36:44.842Z,16.6
2022-09-15T16:38:47.859Z,16.6
2022-09-15T16:42:53.944Z,16.8
2022-09-15T16:45:00.146Z,16.6
2022-09-15T16:47:03.054Z,16.5
2022-09-15T16:49:06.029Z,16.5
2022-09-15T16:51:23.359Z,16.3
2022-09-15T16:53:12.134Z,16.3
2022-09-15T16:59:24.338Z,14.3
2022-09-15T17:01:27.387Z,14.2
2022-09-15T17:05:59.950Z,14.2
2022-09-15T17:08:03.022Z,14.1
2022-09-15T17:10:06.156Z,14
2022-09-15T17:14:15.665Z,13.9
2022-09-15T17:16:18.854Z,14
2022-09-15T17:18:21.959Z,14.1
2022-09-15T17:20:25.110Z,14.1
2022-09-15T17:22:28.249Z,14.1
2022-09-15T17:24:31.367Z,14
2022-09-15T17:26:37.737Z,14
2022-09-15T17:30:44.042Z,14.2
2022-09-15T17:36:53.490Z,13.8
2022-09-15T17:38:56.645Z,13.9
2022-09-15T17:43:06.161Z,13.5
2022-09-15T17:45:09.300Z,13.5
2022-09-15T17:49:15.594Z,13.4
2022-09-15T17:59:34.510Z,13.7
2022-09-15T18:00:37.699Z,13.6
2022-09-15T18:02:40.884Z,13.7
2022-09-15T18:04:43.982Z,13.6
2022-09-15T18:06:47.143Z,13.5
2022-09-15T18:08:53.616Z,13.5
2022-09-15T18:10:56.650Z,13.6
2022-09-15T18:12:59.822Z,13.5
2022-09-15T18:15:02.964Z,13.4
2022-09-15T18:17:06.063Z,13.4
2022-09-15T18:19:09.218Z,13.5
2022-09-15T18:21:12.348Z,13.4
2022-09-15T18:27:24.994Z,13.3
2022-09-15T18:29:28.139Z,13.4
2022-09-15T18:31:31.394Z,13.3
2022-09-15T18:33:34.450Z,13.3
2022-09-15T18:37:43.915Z,13.1
2022-09-15T18:41:50.217Z,13.2
2022-09-15T18:43:53.449Z,13.1
2022-09-15T18:47:59.615Z,13.1
2022-09-15T18:50:02.844Z,13.2
2022-09-15T18:52:09.115Z,13.1
2022-09-15T18:54:12.263Z,13.2
2022-09-15T18:56:15.403Z,13.2
2022-09-15T18:57:18.577Z,13.1
2022-09-15T18:59:21.747Z,13.2
2022-09-15T19:01:25.027Z,13.3
2022-09-15T19:07:37.543Z,13.3
2022-09-15T19:09:40.694Z,13.2
2022-09-15T19:11:43.856Z,13.3
2022-09-15T19:13:47.005Z,13.3
2022-09-15T19:15:53.380Z,13.4
2022-09-15T19:17:53.274Z,13.3
2022-09-15T19:19:59.638Z,13.3
2022-09-15T19:22:02.776Z,13.2
2022-09-15T19:24:05.934Z,13.2
2022-09-15T19:26:09.076Z,13.2
2022-09-15T19:28:12.211Z,13.1
2022-09-15T19:32:18.535Z,13.1
2022-09-15T19:34:26.457Z,13
2022-09-15T19:36:29.620Z,13
2022-09-15T19:38:32.763Z,12.9
2022-09-15T19:40:36.047Z,13
2022-09-15T19:42:39.021Z,12.9
2022-09-15T19:44:42.194Z,12.8
2022-09-15T19:46:45.324Z,13
2022-09-15T19:48:51.793Z,12.9
2022-09-15T19:50:54.850Z,13
2022-09-15T19:52:59.694Z,13.1
2022-09-15T19:54:01.145Z,13
2022-09-15T19:56:04.312Z,13.1
2022-09-15T19:58:07.446Z,12.9
2022-09-15T20:00:10.605Z,13
2022-09-15T20:10:29.513Z,12.8
2022-09-15T20:12:32.665Z,12.7
2022-09-15T20:14:35.802Z,12.7
2022-09-15T20:16:42.234Z,12.6
2022-09-15T20:18:45.314Z,12.7
2022-09-15T20:20:48.441Z,12.7
2022-09-15T20:22:51.580Z,12.7
2022-09-15T20:24:54.736Z,12.7
2022-09-15T20:26:57.929Z,12.8
2022-09-15T20:29:01.072Z,12.7
2022-09-15T20:31:07.506Z,12.6
2022-09-15T20:33:10.529Z,12.6
2022-09-15T20:39:19.993Z,12.6
2022-09-15T20:41:23.144Z,12.6
2022-09-15T20:43:26.260Z,12.6
2022-09-15T20:45:37.003Z,12.6
2022-09-15T20:49:38.920Z,12.5
2022-09-15T20:52:08.747Z,12.6
2022-09-15T20:54:11.878Z,12.6
2022-09-15T20:56:15.009Z,12.6
2022-09-15T20:58:21.384Z,12.5
2022-09-15T21:02:28.472Z,12.6
2022-09-15T21:04:31.577Z,12.6
2022-09-15T21:08:37.857Z,12.5
2022-09-15T21:12:47.353Z,12.5
2022-09-15T21:14:50.509Z,12.5
2022-09-15T21:16:53.693Z,12.6
2022-09-15T21:20:59.922Z,12.5
2022-09-15T21:25:06.225Z,12.5
2022-09-15T21:27:12.587Z,12.5
2022-09-15T21:31:18.950Z,12.5
2022-09-15T21:33:22.001Z,12.5
2022-09-15T21:35:25.141Z,12.5
2022-09-15T21:37:28.294Z,12.4
2022-09-15T21:39:31.419Z,12.4
2022-09-15T21:41:37.799Z,12.5
2022-09-15T21:45:44.098Z,12.4
2022-09-15T21:46:47.326Z,12.3
2022-09-15T21:48:50.421Z,12.4
2022-09-15T21:50:53.532Z,12.3
2022-09-15T21:59:09.351Z,12.2
2022-09-15T22:05:18.762Z,12.3
2022-09-15T22:07:21.910Z,12.4
2022-09-15T22:09:28.271Z,12.5
2022-09-15T22:11:31.402Z,12.5
2022-09-15T22:13:34.554Z,12.4
2022-09-15T22:15:37.685Z,12.5
2022-09-15T22:17:40.842Z,12.5
2022-09-15T22:19:43.957Z,12.5
2022-09-15T22:21:47.098Z,12.5
2022-09-15T22:23:53.567Z,12.4
2022-09-15T22:25:56.620Z,12.4
2022-09-15T22:27:59.750Z,12.3
2022-09-15T22:30:02.895Z,12.3
2022-09-15T22:32:06.034Z,12.3
2022-09-15T22:34:09.170Z,12.4
2022-09-15T22:38:18.692Z,12.2
2022-09-15T22:43:28.148Z,12.2
2022-09-15T22:45:31.324Z,12.3
2022-09-15T22:47:34.419Z,12.3
2022-09-15T22:49:37.570Z,12.3
2022-09-15T22:51:43.933Z,12.2
2022-09-15T22:53:47.162Z,12.3
2022-09-15T22:55:50.196Z,12.2
2022-09-15T22:57:53.316Z,12.2
2022-09-15T22:59:56.491Z,12.1
2022-09-15T23:01:59.711Z,12
2022-09-15T23:04:02.747Z,12.1
2022-09-15T23:06:09.104Z,11.9
2022-09-15T23:08:12.240Z,11.9
2022-09-15T23:10:15.354Z,11.9
2022-09-15T23:12:18.490Z,12
2022-09-15T23:14:21.642Z,12
2022-09-15T23:16:25.005Z,12.1
2022-09-15T23:18:27.913Z,12.1
2022-09-15T23:20:34.281Z,12.1
2022-09-15T23:22:37.390Z,12.2
2022-09-15T23:24:40.529Z,12.2
2022-09-15T23:26:43.660Z,12.1
2022-09-15T23:28:46.827Z,11.9
2022-09-15T23:30:49.934Z,12.1
2022-09-15T23:32:53.070Z,11.9
2022-09-15T23:34:59.424Z,12
2022-09-15T23:37:02.558Z,12
2022-09-15T23:39:05.684Z,12.1
2022-09-15T23:40:08.903Z,12.1
2022-09-15T23:42:14.531Z,12.1
2022-09-15T23:44:15.137Z,12
2022-09-15T23:46:18.304Z,12.1
2022-09-15T23:48:24.610Z,12.1
2022-09-15T23:50:27.769Z,12
2022-09-15T23:52:30.901Z,12.1
2022-09-15T23:54:34.043Z,12.1
2022-09-15T23:56:37.175Z,12
2022-09-15T23:58:40.308Z,12
